Time;durP1;ratioP1;P1;durP2;ratioP2;P2;SDS_P1;SDS_P2;PMS_P1;PMS_P2;Temp;Humidity;BMP_temperature;BMP_pressure;BME280_temperature;BME280_humidity;BME280_pressure;Samples;Min_cycle;Max_cycle;Signal;HPM_P1;HPM_P2
2023/10/03 00:01:40;;;;;;;40.55;28.48;;;;;;;;;;5039508;28;20048;-78
2023/10/03 00:04:10;;;;;;;44.00;29.67;;;;;;;;;;5039508;28;20140;-79
2023/10/03 00:06:38;;;;;;;39.22;27.83;;;;;;;;;;5056615;28;20477;-78
2023/10/03 00:09:06;;;;;;;38.63;27.67;;;;;;;;;;5055834;28;20408;-78
2023/10/03 00:11:33;;;;;;;37.53;27.17;;;;;;;;;;5023406;28;20055;-78
2023/10/03 00:14:00;;;;;;;38.55;26.80;;;;;;;;;;5056086;28;20093;-79
2023/10/03 00:16:27;;;;;;;37.47;26.13;;;;;;;;;;5056061;28;20064;-78
2023/10/03 00:18:53;;;;;;;35.25;25.45;;;;;;;;;;5039440;28;20400;-79
2023/10/03 00:21:19;;;;;;;38.92;26.13;;;;;;;;;;5039144;28;20051;-78
2023/10/03 00:23:45;;;;;;;37.70;26.02;;;;;;;;;;5039227;28;20048;-79
2023/10/03 00:26:17;;;;;;;37.22;25.55;;;;;;;;;;5039334;28;20044;-79
2023/10/03 00:28:44;;;;;;;39.75;25.92;;;;;;;;;;5069244;28;20068;-79
2023/10/03 00:31:13;;;;;;;36.20;25.08;;;;;;;;;;5059442;28;20127;-79
2023/10/03 00:33:41;;;;;;;37.50;25.50;;;;;;;;;;5076238;28;20474;-79
2023/10/03 00:36:23;;;;;;;35.08;24.58;;;;;;;;;;5075560;28;20453;-79
2023/10/03 00:38:53;;;;;;;34.85;24.70;;;;;;;;;;5075542;28;20048;-79
2023/10/03 00:41:19;;;;;;;36.40;24.60;;;;;;;;;;5076172;28;20044;-79
2023/10/03 00:44:01;;;;;;;35.13;24.92;;;;;;;;;;5075818;28;20048;-79
2023/10/03 00:46:29;;;;;;;37.72;24.65;;;;;;;;;;5059482;28;20036;-79
2023/10/03 00:48:56;;;;;;;34.53;24.45;;;;;;;;;;5058785;28;20043;-79
2023/10/03 00:51:23;;;;;;;34.85;23.65;;;;;;;;;;5075813;28;20097;-79
2023/10/03 00:53:53;;;;;;;36.35;24.60;;;;;;;;;;5075748;28;20048;-79
2023/10/03 00:56:19;;;;;;;33.92;22.83;;;;;;;;;;5076047;28;20059;-79
2023/10/03 00:58:45;;;;;;;38.30;24.75;;;;;;;;;;5075427;28;20532;-79
2023/10/03 01:01:12;;;;;;;34.63;24.40;;;;;;;;;;5043266;28;20094;-78
2023/10/03 01:03:38;;;;;;;34.17;23.77;;;;;;;;;;5058997;28;20084;-78
2023/10/03 01:06:12;;;;;;;34.35;23.02;;;;;;;;;;5076326;28;20044;-78
2023/10/03 01:08:46;;;;;;;33.60;23.33;;;;;;;;;;5075635;28;20056;-78
2023/10/03 01:11:15;;;;;;;32.97;22.73;;;;;;;;;;5076409;28;20496;-79
2023/10/03 01:13:49;;;;;;;33.10;23.15;;;;;;;;;;5077490;28;20380;-79
2023/10/03 01:16:22;;;;;;;35.42;23.10;;;;;;;;;;5079335;28;20083;-79
2023/10/03 01:18:52;;;;;;;35.70;21.90;;;;;;;;;;5079071;28;20472;-79
2023/10/03 01:21:20;;;;;;;35.42;22.92;;;;;;;;;;5046428;28;20051;-79
2023/10/03 01:23:47;;;;;;;36.45;22.77;;;;;;;;;;5062975;28;20089;-78
2023/10/03 01:26:14;;;;;;;35.10;22.65;;;;;;;;;;5079108;28;20429;-79
2023/10/03 01:28:40;;;;;;;37.38;23.90;;;;;;;;;;5062324;28;20067;-78
2023/10/03 01:31:07;;;;;;;34.67;22.05;;;;;;;;;;5062298;28;20063;-78
2023/10/03 01:33:33;;;;;;;37.45;23.25;;;;;;;;;;5062362;28;20048;-79
2023/10/03 01:36:01;;;;;;;34.60;22.33;;;;;;;;;;5078918;28;20135;-79
2023/10/03 01:38:27;;;;;;;33.67;22.10;;;;;;;;;;5078779;28;20377;-78
2023/10/03 01:40:54;;;;;;;34.80;23.20;;;;;;;;;;5078844;28;20054;-79
2023/10/03 01:43:20;;;;;;;36.33;23.55;;;;;;;;;;5078784;28;20131;-79
2023/10/03 01:45:47;;;;;;;34.45;22.02;;;;;;;;;;5078496;28;20503;-80
2023/10/03 01:48:14;;;;;;;37.08;23.40;;;;;;;;;;5078492;28;20043;-79
2023/10/03 01:50:40;;;;;;;35.60;23.05;;;;;;;;;;5078908;28;20048;-78
2023/10/03 01:53:07;;;;;;;34.97;21.88;;;;;;;;;;5062003;28;20480;-79
2023/10/03 01:55:33;;;;;;;35.13;22.58;;;;;;;;;;5079418;28;20049;-79
2023/10/03 01:57:59;;;;;;;36.63;23.25;;;;;;;;;;5078987;28;20457;-80
2023/10/03 02:00:26;;;;;;;34.00;23.30;;;;;;;;;;5078515;28;20055;-79
2023/10/03 02:03:05;;;;;;;38.28;23.00;;;;;;;;;;5078507;28;20500;-79
2023/10/03 02:05:33;;;;;;;36.75;22.10;;;;;;;;;;5062091;28;20051;-78
2023/10/03 02:08:04;;;;;;;34.25;22.05;;;;;;;;;;5078361;28;20052;-78
2023/10/03 02:10:33;;;;;;;37.88;23.67;;;;;;;;;;5078925;28;20445;-78
2023/10/03 02:12:59;;;;;;;37.45;22.92;;;;;;;;;;5078239;28;20044;-78
2023/10/03 02:15:25;;;;;;;33.78;21.38;;;;;;;;;;5078247;28;20051;-78
2023/10/03 02:17:53;;;;;;;32.65;21.30;;;;;;;;;;5078321;28;20472;-79
2023/10/03 02:20:25;;;;;;;32.60;22.25;;;;;;;;;;5078028;28;20061;-79
2023/10/03 02:22:55;;;;;;;37.60;22.45;;;;;;;;;;5078153;28;20055;-80
2023/10/03 02:25:22;;;;;;;32.42;21.95;;;;;;;;;;5061313;28;20044;-79
2023/10/03 02:27:49;;;;;;;34.45;21.17;;;;;;;;;;5077579;28;20064;-78
2023/10/03 02:30:19;;;;;;;38.00;22.95;;;;;;;;;;5078260;28;20414;-79
2023/10/03 02:32:46;;;;;;;36.70;23.33;;;;;;;;;;5061954;28;20047;-79
2023/10/03 02:35:14;;;;;;;36.10;22.50;;;;;;;;;;5061234;28;20127;-79
2023/10/03 02:37:40;;;;;;;38.90;22.30;;;;;;;;;;5061214;28;20132;-79
2023/10/03 02:40:07;;;;;;;34.85;21.77;;;;;;;;;;5077691;28;20072;-78
2023/10/03 02:42:38;;;;;;;37.45;22.35;;;;;;;;;;5077629;28;20062;-79
2023/10/03 02:45:05;;;;;;;33.40;22.52;;;;;;;;;;5077521;28;20097;-79
2023/10/03 02:47:31;;;;;;;37.15;23.77;;;;;;;;;;5061088;28;20071;-78
2023/10/03 02:49:59;;;;;;;35.50;22.45;;;;;;;;;;5077753;28;20040;-79
2023/10/03 02:52:25;;;;;;;34.33;22.55;;;;;;;;;;5061165;28;20044;-79
2023/10/03 02:54:51;;;;;;;34.28;21.55;;;;;;;;;;5078008;28;20541;-78
2023/10/03 02:57:18;;;;;;;34.83;22.23;;;;;;;;;;5076959;28;20127;-78
2023/10/03 02:59:44;;;;;;;34.53;21.58;;;;;;;;;;5077329;28;20047;-79
2023/10/03 03:02:14;;;;;;;34.40;20.70;;;;;;;;;;5060559;28;20048;-78
2023/10/03 03:04:41;;;;;;;33.00;21.58;;;;;;;;;;5078051;28;20059;-79
2023/10/03 03:07:08;;;;;;;33.78;20.48;;;;;;;;;;5077095;28;20051;-79
2023/10/03 03:09:36;;;;;;;36.78;22.48;;;;;;;;;;5044445;28;20058;-78
2023/10/03 03:12:06;;;;;;;33.03;21.45;;;;;;;;;;5077126;28;20055;-79
2023/10/03 03:14:32;;;;;;;36.80;20.83;;;;;;;;;;5044648;28;20051;-78
2023/10/03 03:16:58;;;;;;;34.97;21.75;;;;;;;;;;5076998;28;20070;-79
2023/10/03 03:19:27;;;;;;;35.63;21.67;;;;;;;;;;5059720;28;20040;-79
2023/10/03 03:21:57;;;;;;;33.28;21.35;;;;;;;;;;5061508;28;20079;-79
2023/10/03 03:24:33;;;;;;;33.03;21.92;;;;;;;;;;5077665;28;20055;-79
2023/10/03 03:27:00;;;;;;;33.22;21.63;;;;;;;;;;5062078;28;20077;-78
2023/10/03 03:29:35;;;;;;;36.08;22.42;;;;;;;;;;5076295;28;20060;-78
2023/10/03 03:32:04;;;;;;;34.65;22.27;;;;;;;;;;5077086;28;20083;-78
2023/10/03 03:34:30;;;;;;;34.70;22.08;;;;;;;;;;5077423;28;20415;-78
2023/10/03 03:37:14;;;;;;;34.30;20.90;;;;;;;;;;5076359;28;20440;-78
2023/10/03 03:40:10;;;;;;;33.58;21.55;;;;;;;;;;5059774;28;20106;-79
2023/10/03 03:42:37;;;;;;;35.10;21.92;;;;;;;;;;5060361;28;20070;-78
2023/10/03 03:45:04;;;;;;;33.90;20.98;;;;;;;;;;5076511;28;20392;-78
2023/10/03 03:47:33;;;;;;;34.40;22.05;;;;;;;;;;5076411;28;20135;-78
2023/10/03 03:50:01;;;;;;;32.25;20.73;;;;;;;;;;5077094;28;20059;-78
2023/10/03 03:52:32;;;;;;;34.63;21.17;;;;;;;;;;5059939;28;20091;-78
2023/10/03 03:55:03;;;;;;;31.63;21.17;;;;;;;;;;5059942;28;20051;-79
2023/10/03 03:57:29;;;;;;;33.70;22.25;;;;;;;;;;5059574;28;20040;-78
2023/10/03 03:59:56;;;;;;;32.88;21.05;;;;;;;;;;5076530;28;20055;-78
2023/10/03 04:02:23;;;;;;;34.25;21.77;;;;;;;;;;5076225;28;20059;-78
2023/10/03 04:04:50;;;;;;;36.00;22.35;;;;;;;;;;5060363;28;20055;-78
2023/10/03 04:07:16;;;;;;;33.03;21.42;;;;;;;;;;5076152;28;20048;-78
2023/10/03 04:09:42;;;;;;;35.47;22.30;;;;;;;;;;5076144;28;20496;-78
2023/10/03 04:12:08;;;;;;;33.80;20.75;;;;;;;;;;5093980;28;20048;-78
2023/10/03 04:14:35;;;;;;;34.10;21.33;;;;;;;;;;5076413;28;20048;-78
2023/10/03 04:17:01;;;;;;;32.70;21.35;;;;;;;;;;5059651;28;20048;-78
2023/10/03 04:19:27;;;;;;;34.03;20.40;;;;;;;;;;5075947;28;20044;-78
2023/10/03 04:21:53;;;;;;;30.88;20.23;;;;;;;;;;5094354;28;20091;-78
2023/10/03 04:24:20;;;;;;;34.67;20.77;;;;;;;;;;5075687;28;20091;-78
2023/10/03 04:26:47;;;;;;;36.13;21.27;;;;;;;;;;5059337;28;20052;-78
2023/10/03 04:29:13;;;;;;;33.25;21.42;;;;;;;;;;5025851;28;20110;-78
2023/10/03 04:31:40;;;;;;;32.00;19.90;;;;;;;;;;5039403;28;20044;-79
2023/10/03 04:34:09;;;;;;;31.00;20.63;;;;;;;;;;5055664;28;20057;-77
2023/10/03 04:36:36;;;;;;;31.50;19.63;;;;;;;;;;5055732;28;20056;-79
2023/10/03 04:39:02;;;;;;;30.98;20.23;;;;;;;;;;5055828;28;20428;-77
2023/10/03 04:41:29;;;;;;;30.35;20.80;;;;;;;;;;5039315;28;20470;-78
2023/10/03 04:43:55;;;;;;;32.08;20.67;;;;;;;;;;5039279;28;20084;-78
2023/10/03 04:46:21;;;;;;;28.67;18.67;;;;;;;;;;5039044;28;20127;-79
2023/10/03 04:48:49;;;;;;;33.38;19.27;;;;;;;;;;5057475;28;20078;-78
2023/10/03 04:51:16;;;;;;;32.63;20.10;;;;;;;;;;5059802;28;20040;-77
2023/10/03 04:53:42;;;;;;;31.88;20.25;;;;;;;;;;5059682;28;20040;-77
2023/10/03 04:56:08;;;;;;;30.55;20.10;;;;;;;;;;5059708;28;20131;-78
2023/10/03 04:58:34;;;;;;;30.88;19.17;;;;;;;;;;5059408;28;20047;-78
2023/10/03 05:01:00;;;;;;;29.27;18.92;;;;;;;;;;5042973;28;20048;-77
2023/10/03 05:03:26;;;;;;;27.58;18.35;;;;;;;;;;5042731;28;20047;-78
2023/10/03 05:05:52;;;;;;;29.70;19.45;;;;;;;;;;5059512;28;20052;-77
2023/10/03 05:08:19;;;;;;;31.08;19.17;;;;;;;;;;5059550;28;20055;-78
2023/10/03 05:10:45;;;;;;;30.00;18.92;;;;;;;;;;5043665;28;20051;-78
2023/10/03 05:13:11;;;;;;;28.20;18.63;;;;;;;;;;5042746;28;20049;-78
2023/10/03 05:15:38;;;;;;;28.80;17.50;;;;;;;;;;5059290;28;20052;-79
2023/10/03 05:18:04;;;;;;;28.52;16.77;;;;;;;;;;5059038;28;20105;-78
2023/10/03 05:20:37;;;;;;;31.08;17.88;;;;;;;;;;5059191;28;20044;-78
2023/10/03 05:23:04;;;;;;;27.73;17.37;;;;;;;;;;5059569;28;20143;-78
2023/10/03 05:25:30;;;;;;;29.23;17.00;;;;;;;;;;5059833;28;20298;-78
2023/10/03 05:27:56;;;;;;;26.50;16.17;;;;;;;;;;5065893;28;20083;-78
2023/10/03 05:30:25;;;;;;;27.00;16.52;;;;;;;;;;5079386;28;20055;-78
2023/10/03 05:32:51;;;;;;;22.45;15.35;;;;;;;;;;5079070;28;20040;-78
2023/10/03 05:35:17;;;;;;;27.92;16.17;;;;;;;;;;5063186;28;20048;-78
2023/10/03 05:37:43;;;;;;;32.10;15.80;;;;;;;;;;5078722;28;20399;-79
2023/10/03 05:40:15;;;;;;;26.60;16.10;;;;;;;;;;5078862;28;20052;-78
2023/10/03 05:42:43;;;;;;;24.20;14.98;;;;;;;;;;5063077;28;20143;-78
2023/10/03 05:45:12;;;;;;;24.40;14.20;;;;;;;;;;5062385;28;20048;-79
2023/10/03 05:47:44;;;;;;;24.45;13.90;;;;;;;;;;5078726;28;20048;-77
2023/10/03 05:50:10;;;;;;;25.38;14.30;;;;;;;;;;5079244;28;20468;-78
2023/10/03 05:52:36;;;;;;;24.92;14.38;;;;;;;;;;5078715;28;20040;-78
2023/10/03 05:55:02;;;;;;;25.08;14.07;;;;;;;;;;5078414;28;20617;-78
2023/10/03 05:57:29;;;;;;;21.20;12.95;;;;;;;;;;5061782;28;20091;-78
2023/10/03 05:59:55;;;;;;;22.95;13.52;;;;;;;;;;5061752;28;20480;-78
2023/10/03 06:02:21;;;;;;;20.75;12.25;;;;;;;;;;5078795;28;20036;-78
2023/10/03 06:04:48;;;;;;;19.23;11.52;;;;;;;;;;5078483;28;20044;-78
2023/10/03 06:07:14;;;;;;;18.95;11.07;;;;;;;;;;5078349;28;20164;-78
2023/10/03 06:09:40;;;;;;;19.98;10.90;;;;;;;;;;5062413;28;20483;-77
2023/10/03 06:12:06;;;;;;;20.63;10.60;;;;;;;;;;5078575;28;20428;-78
2023/10/03 06:14:33;;;;;;;18.42;9.95;;;;;;;;;;5078319;28;20238;-78
2023/10/03 06:16:59;;;;;;;18.80;8.50;;;;;;;;;;5078280;28;20052;-78
2023/10/03 06:19:25;;;;;;;19.25;8.95;;;;;;;;;;5077969;28;20040;-78
2023/10/03 06:21:52;;;;;;;13.65;7.97;;;;;;;;;;5078183;28;20048;-78
2023/10/03 06:24:18;;;;;;;14.98;8.40;;;;;;;;;;5078092;28;20097;-79
2023/10/03 06:26:47;;;;;;;15.82;7.32;;;;;;;;;;5078116;28;20090;-78
2023/10/03 06:29:15;;;;;;;22.95;8.07;;;;;;;;;;5077686;28;20117;-78
2023/10/03 06:31:41;;;;;;;15.02;6.95;;;;;;;;;;5061249;28;20044;-79
2023/10/03 06:34:07;;;;;;;17.80;6.55;;;;;;;;;;5077635;28;20133;-79
2023/10/03 06:36:34;;;;;;;15.05;6.15;;;;;;;;;;5061059;28;20044;-79
2023/10/03 06:39:00;;;;;;;15.82;5.78;;;;;;;;;;5061364;28;20361;-79
2023/10/03 06:41:26;;;;;;;13.60;4.72;;;;;;;;;;5061988;28;20138;-78
2023/10/03 06:43:52;;;;;;;12.15;4.18;;;;;;;;;;5077729;28;20048;-79
2023/10/03 06:46:19;;;;;;;15.48;4.18;;;;;;;;;;5077469;28;20051;-79
2023/10/03 06:48:52;;;;;;;10.75;4.25;;;;;;;;;;5077324;28;20492;-78
2023/10/03 06:51:19;;;;;;;14.25;4.65;;;;;;;;;;5078370;28;20059;-79
2023/10/03 06:53:48;;;;;;;11.93;4.78;;;;;;;;;;5077473;28;20044;-79
2023/10/03 06:56:15;;;;;;;15.70;5.32;;;;;;;;;;5077965;28;20516;-79
2023/10/03 06:58:41;;;;;;;10.38;4.68;;;;;;;;;;5060759;28;20048;-79
2023/10/03 07:01:11;;;;;;;12.40;5.07;;;;;;;;;;5077418;28;20048;-78
2023/10/03 07:03:37;;;;;;;11.10;5.90;;;;;;;;;;5078097;28;20052;-78
2023/10/03 07:06:04;;;;;;;13.50;5.30;;;;;;;;;;5077311;28;20091;-79
2023/10/03 07:08:31;;;;;;;10.85;5.10;;;;;;;;;;5077957;28;20044;-79
2023/10/03 07:10:57;;;;;;;10.68;4.70;;;;;;;;;;5077121;28;20052;-79
2023/10/03 07:13:26;;;;;;;9.48;4.85;;;;;;;;;;5077113;28;20052;-79
2023/10/03 07:15:53;;;;;;;12.30;4.57;;;;;;;;;;5044319;28;20051;-79
2023/10/03 07:18:20;;;;;;;11.90;4.32;;;;;;;;;;5076799;28;20047;-79
2023/10/03 07:20:47;;;;;;;9.48;4.00;;;;;;;;;;5076863;28;20056;-79
2023/10/03 07:23:13;;;;;;;11.10;5.25;;;;;;;;;;5077451;28;20056;-79
2023/10/03 07:25:39;;;;;;;10.93;4.50;;;;;;;;;;5077270;28;20073;-79
2023/10/03 07:28:05;;;;;;;7.80;3.88;;;;;;;;;;5076539;28;20063;-79
2023/10/03 07:30:31;;;;;;;15.80;5.28;;;;;;;;;;5060219;28;20052;-80
2023/10/03 07:32:57;;;;;;;10.23;5.22;;;;;;;;;;5060165;28;20392;-79
2023/10/03 07:35:24;;;;;;;11.38;4.95;;;;;;;;;;5076633;28;20040;-80
2023/10/03 07:37:51;;;;;;;11.13;4.57;;;;;;;;;;5059901;28;20087;-81
2023/10/03 07:40:17;;;;;;;12.32;4.72;;;;;;;;;;5060007;28;20044;-80
2023/10/03 07:42:44;;;;;;;10.98;5.00;;;;;;;;;;5076587;28;20044;-80
2023/10/03 07:45:10;;;;;;;13.18;6.32;;;;;;;;;;5059932;28;20143;-80
2023/10/03 07:47:41;;;;;;;8.85;5.55;;;;;;;;;;5076462;28;20502;-79
2023/10/03 07:50:09;;;;;;;12.98;5.47;;;;;;;;;;5076568;28;20491;-80
2023/10/03 07:52:35;;;;;;;10.68;6.15;;;;;;;;;;5059093;28;20055;-81
2023/10/03 07:55:03;;;;;;;9.00;5.10;;;;;;;;;;5075829;28;20044;-80
2023/10/03 07:57:30;;;;;;;13.07;4.95;;;;;;;;;;5076354;28;20093;-79
2023/10/03 07:59:56;;;;;;;8.60;4.30;;;;;;;;;;5076582;28;20040;-81
2023/10/03 08:02:32;;;;;;;10.88;4.75;;;;;;;;;;5075949;28;20181;-80
2023/10/03 08:05:00;;;;;;;10.90;4.93;;;;;;;;;;5076948;28;20093;-79
2023/10/03 08:07:27;;;;;;;10.57;4.72;;;;;;;;;;5059926;28;20055;-79
2023/10/03 08:09:53;;;;;;;8.77;4.32;;;;;;;;;;5059364;28;20138;-79
2023/10/03 08:12:25;;;;;;;9.45;4.25;;;;;;;;;;5059353;28;20044;-80
2023/10/03 08:14:55;;;;;;;7.18;4.07;;;;;;;;;;5060577;28;20055;-80
2023/10/03 08:17:26;;;;;;;11.93;5.13;;;;;;;;;;5059337;28;20048;-79
2023/10/03 08:19:52;;;;;;;6.07;3.58;;;;;;;;;;5076162;28;20109;-79
2023/10/03 08:22:20;;;;;;;9.68;4.32;;;;;;;;;;5075628;28;20044;-79
2023/10/03 08:24:46;;;;;;;7.65;4.28;;;;;;;;;;5059287;28;20087;-79
2023/10/03 08:27:19;;;;;;;9.82;4.25;;;;;;;;;;5058049;28;20134;-80
2023/10/03 08:29:50;;;;;;;6.97;3.80;;;;;;;;;;5056708;28;20048;-79
2023/10/03 08:32:17;;;;;;;11.20;4.60;;;;;;;;;;5056709;28;20048;-79
2023/10/03 08:34:44;;;;;;;7.28;3.30;;;;;;;;;;5055755;28;20433;-79
2023/10/03 08:37:18;;;;;;;6.95;3.55;;;;;;;;;;5056103;28;20131;-79
2023/10/03 08:39:51;;;;;;;5.78;3.03;;;;;;;;;;5056024;28;20049;-80
2023/10/03 08:42:18;;;;;;;6.03;2.90;;;;;;;;;;5056520;28;20048;-79
2023/10/03 08:44:51;;;;;;;6.90;2.88;;;;;;;;;;5038802;28;20056;-80
2023/10/03 08:47:28;;;;;;;5.93;3.08;;;;;;;;;;5039445;28;20049;-80
2023/10/03 08:50:29;;;;;;;6.65;2.55;;;;;;;;;;5055390;28;20045;-80
2023/10/03 08:52:56;;;;;;;6.90;2.88;;;;;;;;;;5039667;28;20510;-80
2023/10/03 08:55:26;;;;;;;6.78;3.22;;;;;;;;;;5055809;28;20036;-81
2023/10/03 08:57:53;;;;;;;7.75;3.20;;;;;;;;;;5039623;28;20091;-80
2023/10/03 09:00:28;;;;;;;7.75;3.00;;;;;;;;;;5055589;28;20503;-79
2023/10/03 09:03:09;;;;;;;6.70;2.33;;;;;;;;;;5055879;28;20131;-80
2023/10/03 09:05:39;;;;;;;7.88;1.75;;;;;;;;;;5039818;28;20106;-78
2023/10/03 09:08:08;;;;;;;4.22;1.38;;;;;;;;;;5055380;28;20059;-80
2023/10/03 09:10:42;;;;;;;6.32;0.95;;;;;;;;;;5055534;28;20080;-80
2023/10/03 09:13:08;;;;;;;;;;;;;;;;;;5039287;28;20049;-79
2023/10/03 09:15:38;;;;;;;6.95;0.80;;;;;;;;;;5055733;28;19920;-81
2023/10/03 09:18:09;;;;;;;4.53;0.70;;;;;;;;;;5055245;28;20048;-80
2023/10/03 09:20:36;;;;;;;4.82;0.70;;;;;;;;;;5039615;28;20052;-80
2023/10/03 09:23:05;;;;;;;8.00;1.05;;;;;;;;;;5055023;28;20053;-80
2023/10/03 09:25:32;;;;;;;1.95;0.38;;;;;;;;;;5055098;28;20052;-81
2023/10/03 09:28:05;;;;;;;2.10;0.30;;;;;;;;;;5045947;28;20142;-80
2023/10/03 09:30:37;;;;;;;3.08;0.50;;;;;;;;;;5075406;28;20086;-81
2023/10/03 09:33:16;;;;;;;5.38;0.43;;;;;;;;;;5076123;28;20068;-81
2023/10/03 09:35:56;;;;;;;4.90;0.40;;;;;;;;;;5078848;28;20400;-81
2023/10/03 09:38:33;;;;;;;4.80;0.30;;;;;;;;;;5078919;28;20515;-80
2023/10/03 09:41:00;;;;;;;4.43;0.45;;;;;;;;;;5062547;28;20055;-81
2023/10/03 09:43:30;;;;;;;5.80;0.50;;;;;;;;;;5062340;28;20476;-80
2023/10/03 09:46:00;;;;;;;2.40;0.40;;;;;;;;;;5062618;28;20048;-80
2023/10/03 09:48:26;;;;;;;6.82;0.40;;;;;;;;;;5078537;28;20052;-80
2023/10/03 09:50:53;;;;;;;2.97;0.40;;;;;;;;;;5062051;28;20132;-80
2023/10/03 09:53:27;;;;;;;2.90;0.20;;;;;;;;;;5078990;28;20395;-80
2023/10/03 09:55:57;;;;;;;4.75;0.20;;;;;;;;;;5062376;28;20494;-81
2023/10/03 09:58:31;;;;;;;3.22;0.20;;;;;;;;;;5062785;28;20048;-81
2023/10/03 10:00:57;;;;;;;3.10;0.20;;;;;;;;;;5079462;28;20047;-81
2023/10/03 10:03:30;;;;;;;4.88;0.20;;;;;;;;;;5061917;28;20048;-81
2023/10/03 10:05:59;;;;;;;3.88;0.30;;;;;;;;;;5079071;28;20135;-79
2023/10/03 10:08:27;;;;;;;3.17;0.20;;;;;;;;;;5078667;28;20100;-80
2023/10/03 10:11:10;;;;;;;5.05;0.30;;;;;;;;;;5078419;28;20056;-80
2023/10/03 10:13:37;;;;;;;6.15;0.30;;;;;;;;;;5079150;28;20056;-81
2023/10/03 10:16:07;;;;;;;3.92;0.20;;;;;;;;;;5078299;28;20086;-81
2023/10/03 10:18:45;;;;;;;3.13;0.28;;;;;;;;;;5061733;28;20059;-81
2023/10/03 10:21:20;;;;;;;3.80;0.30;;;;;;;;;;5078197;28;20131;-79
2023/10/03 10:24:06;;;;;;;2.72;0.30;;;;;;;;;;5078445;28;20048;-80
2023/10/03 10:26:34;;;;;;;2.33;0.10;;;;;;;;;;5061054;28;20138;-80
2023/10/03 10:29:11;;;;;;;2.72;0.20;;;;;;;;;;5077919;28;20096;-81
2023/10/03 10:31:44;;;;;;;1.80;0.20;;;;;;;;;;5062209;28;20059;-79
2023/10/03 10:34:32;;;;;;;2.28;0.10;;;;;;;;;;5077949;28;20422;-79
2023/10/03 10:37:11;;;;;;;1.38;0.10;;;;;;;;;;5078174;28;20392;-79
2023/10/03 10:39:56;;;;;;;4.68;0.15;;;;;;;;;;5061716;28;20040;-80
2023/10/03 10:42:26;;;;;;;3.85;0.20;;;;;;;;;;5077549;28;20613;-81
2023/10/03 10:45:16;;;;;;;2.25;0.10;;;;;;;;;;5077676;28;20078;-79
2023/10/03 10:47:49;;;;;;;2.67;0.10;;;;;;;;;;5050133;28;20113;-79
2023/10/03 10:50:17;;;;;;;2.08;0.10;;;;;;;;;;5077637;28;20052;-81
2023/10/03 10:52:53;;;;;;;1.63;0.20;;;;;;;;;;5060957;28;20052;-81
2023/10/03 10:55:23;;;;;;;1.08;0.17;;;;;;;;;;5061091;28;20044;-79
2023/10/03 10:58:07;;;;;;;0.73;0.10;;;;;;;;;;5077748;28;20392;-79
2023/10/03 11:00:33;;;;;;;1.30;0.10;;;;;;;;;;5077415;28;20044;-80
2023/10/03 11:03:00;;;;;;;3.60;0.10;;;;;;;;;;5077413;28;20373;-79
2023/10/03 11:05:30;;;;;;;1.88;0.10;;;;;;;;;;5060685;28;20040;-79
2023/10/03 11:07:57;;;;;;;2.85;0.10;;;;;;;;;;5044805;28;20127;-79
2023/10/03 11:10:23;;;;;;;0.98;0.10;;;;;;;;;;5078033;28;20048;-79
2023/10/03 11:12:59;;;;;;;1.02;0.10;;;;;;;;;;5060338;28;20048;-80
2023/10/03 11:15:26;;;;;;;1.95;0.10;;;;;;;;;;5077043;28;20127;-81
2023/10/03 11:17:52;;;;;;;2.83;0.10;;;;;;;;;;5077039;28;20047;-81
2023/10/03 11:20:19;;;;;;;1.77;0.10;;;;;;;;;;5077103;28;20135;-80
2023/10/03 11:22:47;;;;;;;4.95;0.28;;;;;;;;;;5060391;28;20048;-80
2023/10/03 11:25:13;;;;;;;1.45;0.20;;;;;;;;;;5060357;28;20047;-81
2023/10/03 11:27:40;;;;;;;2.30;0.20;;;;;;;;;;5060984;28;20385;-81
2023/10/03 11:30:16;;;;;;;1.58;0.22;;;;;;;;;;5060447;28;20047;-81
2023/10/03 11:32:42;;;;;;;1.23;0.20;;;;;;;;;;5060171;28;20063;-81
2023/10/03 11:35:16;;;;;;;3.60;0.22;;;;;;;;;;5076817;28;20134;-80
2023/10/03 11:37:45;;;;;;;2.35;0.20;;;;;;;;;;5076583;28;20479;-80
2023/10/03 11:40:16;;;;;;;2.72;0.20;;;;;;;;;;5076708;28;20130;-80
2023/10/03 11:42:51;;;;;;;4.10;0.30;;;;;;;;;;5077073;28;20098;-80
2023/10/03 11:45:18;;;;;;;2.17;0.20;;;;;;;;;;5076636;28;20044;-80
2023/10/03 11:47:57;;;;;;;3.00;0.20;;;;;;;;;;5076576;28;20498;-80
2023/10/03 11:50:23;;;;;;;3.03;0.30;;;;;;;;;;5077387;28;20472;-80
2023/10/03 11:52:49;;;;;;;2.15;0.30;;;;;;;;;;5077311;28;20380;-80
2023/10/03 11:55:15;;;;;;;3.30;0.20;;;;;;;;;;5059829;28;20453;-80
2023/10/03 11:57:42;;;;;;;2.45;0.20;;;;;;;;;;5060170;28;20056;-80
2023/10/03 12:00:14;;;;;;;2.50;0.30;;;;;;;;;;5076388;28;20479;-79
2023/10/03 12:02:48;;;;;;;1.05;0.20;;;;;;;;;;5076456;28;20476;-79
2023/10/03 12:05:16;;;;;;;2.83;0.20;;;;;;;;;;5059347;28;20048;-80
2023/10/03 12:07:49;;;;;;;4.65;0.30;;;;;;;;;;5059426;28;20047;-81
2023/10/03 12:10:16;;;;;;;3.75;0.43;;;;;;;;;;5076516;28;20055;-79
2023/10/03 12:12:42;;;;;;;2.53;0.20;;;;;;;;;;5076266;28;20067;-79
2023/10/03 12:15:12;;;;;;;2.47;0.30;;;;;;;;;;5076550;28;20048;-80
2023/10/03 12:17:42;;;;;;;4.45;0.40;;;;;;;;;;5076353;28;20365;-81
2023/10/03 12:20:12;;;;;;;1.42;0.40;;;;;;;;;;5076167;28;20047;-81
2023/10/03 12:22:43;;;;;;;2.25;0.32;;;;;;;;;;5076028;28;20504;-81
2023/10/03 12:25:12;;;;;;;3.47;0.68;;;;;;;;;;5076068;28;20055;-81
2023/10/03 12:27:41;;;;;;;4.68;0.70;;;;;;;;;;5075933;28;20131;-80
2023/10/03 12:30:10;;;;;;;2.58;0.60;;;;;;;;;;5076072;28;20491;-80
2023/10/03 12:32:38;;;;;;;2.40;0.70;;;;;;;;;;5060682;28;20392;-81
2023/10/03 12:35:05;;;;;;;4.25;0.63;;;;;;;;;;5076842;28;20376;-81
2023/10/03 12:37:32;;;;;;;2.85;0.60;;;;;;;;;;5075495;28;20040;-81
2023/10/03 12:40:04;;;;;;;2.45;0.57;;;;;;;;;;5075949;28;20052;-81
2023/10/03 12:42:33;;;;;;;6.60;0.80;;;;;;;;;;5076744;28;20040;-81
2023/10/03 12:45:03;;;;;;;5.20;0.60;;;;;;;;;;5076794;28;20040;-81
2023/10/03 12:47:30;;;;;;;4.20;0.73;;;;;;;;;;5075898;28;20111;-82
2023/10/03 12:49:58;;;;;;;4.13;1.05;;;;;;;;;;5059411;28;20040;-81
2023/10/03 12:52:24;;;;;;;3.25;0.60;;;;;;;;;;5076118;28;20048;-81
2023/10/03 12:54:50;;;;;;;5.13;0.90;;;;;;;;;;5076032;28;20066;-81
2023/10/03 12:57:16;;;;;;;4.38;0.70;;;;;;;;;;5076583;28;20048;-81
2023/10/03 12:59:44;;;;;;;3.72;0.75;;;;;;;;;;5075523;28;20500;-81
2023/10/03 13:02:14;;;;;;;5.85;0.82;;;;;;;;;;5058686;28;20052;-81
2023/10/03 13:04:41;;;;;;;4.80;0.77;;;;;;;;;;5075409;28;20048;-81
2023/10/03 13:07:09;;;;;;;3.92;1.00;;;;;;;;;;5076398;28;20181;-80
2023/10/03 13:09:35;;;;;;;2.92;0.68;;;;;;;;;;5076628;28;20059;-81
2023/10/03 13:12:03;;;;;;;3.85;0.93;;;;;;;;;;5079607;28;20059;-80
2023/10/03 13:14:30;;;;;;;3.38;1.10;;;;;;;;;;5062875;28;20055;-80
2023/10/03 13:17:01;;;;;;;2.88;0.85;;;;;;;;;;5079533;28;20048;-79
2023/10/03 13:19:30;;;;;;;5.22;1.10;;;;;;;;;;5079060;28;20040;-79
2023/10/03 13:21:58;;;;;;;9.93;1.42;;;;;;;;;;5046574;28;20054;-79
2023/10/03 13:24:25;;;;;;;4.75;0.93;;;;;;;;;;5097184;28;20136;-79
2023/10/03 13:26:54;;;;;;;5.88;1.40;;;;;;;;;;5079547;28;20055;-79
2023/10/03 13:29:22;;;;;;;6.40;0.90;;;;;;;;;;5079683;28;20109;-79
2023/10/03 13:31:50;;;;;;;4.50;1.42;;;;;;;;;;5062827;28;20040;-79
2023/10/03 13:34:17;;;;;;;6.20;1.35;;;;;;;;;;5079238;28;20056;-79
2023/10/03 13:36:43;;;;;;;9.45;1.90;;;;;;;;;;5079005;28;20055;-81
2023/10/03 13:39:12;;;;;;;5.05;0.98;;;;;;;;;;5078866;28;20472;-79
2023/10/03 13:41:42;;;;;;;6.75;1.52;;;;;;;;;;5078810;28;20484;-80
2023/10/03 13:44:11;;;;;;;6.90;1.13;;;;;;;;;;5079748;28;20052;-79
2023/10/03 13:46:40;;;;;;;7.63;0.95;;;;;;;;;;5079215;28;20055;-79
2023/10/03 13:49:07;;;;;;;6.28;1.13;;;;;;;;;;5079753;28;20083;-79
2023/10/03 13:51:33;;;;;;;5.25;1.08;;;;;;;;;;5078797;28;20063;-79
2023/10/03 13:54:02;;;;;;;4.80;1.08;;;;;;;;;;5062100;28;20134;-79
2023/10/03 13:56:28;;;;;;;7.30;1.05;;;;;;;;;;5061794;28;20091;-78
2023/10/03 13:58:54;;;;;;;6.97;1.10;;;;;;;;;;5079352;28;20054;-78
2023/10/03 14:01:21;;;;;;;5.85;1.27;;;;;;;;;;5078689;28;20593;-78
2023/10/03 14:03:47;;;;;;;5.35;1.05;;;;;;;;;;5078596;28;20048;-78
2023/10/03 14:06:19;;;;;;;4.80;1.05;;;;;;;;;;5078874;28;20060;-79
2023/10/03 14:08:45;;;;;;;5.22;1.08;;;;;;;;;;5078756;28;20138;-78
2023/10/03 14:11:18;;;;;;;6.30;0.98;;;;;;;;;;5078477;28;20085;-79
2023/10/03 14:13:44;;;;;;;4.95;0.98;;;;;;;;;;5079330;28;20044;-79
2023/10/03 14:16:10;;;;;;;8.52;0.90;;;;;;;;;;5078365;28;20126;-78
2023/10/03 14:18:36;;;;;;;6.43;0.85;;;;;;;;;;5061401;28;20488;-78
2023/10/03 14:21:10;;;;;;;5.38;0.95;;;;;;;;;;5061374;28;20083;-78
2023/10/03 14:23:39;;;;;;;7.88;0.70;;;;;;;;;;5079143;28;20052;-79
2023/10/03 14:26:05;;;;;;;6.47;0.98;;;;;;;;;;5079007;28;20085;-79
2023/10/03 14:28:32;;;;;;;6.53;0.93;;;;;;;;;;5060886;28;20504;-78
2023/10/03 14:31:02;;;;;;;6.78;0.98;;;;;;;;;;5061470;28;20056;-78
2023/10/03 14:33:28;;;;;;;5.75;1.10;;;;;;;;;;5061393;28;20052;-79
2023/10/03 14:35:58;;;;;;;7.65;1.33;;;;;;;;;;5061731;28;20070;-78
2023/10/03 14:38:25;;;;;;;5.38;1.20;;;;;;;;;;5077852;28;20051;-79
2023/10/03 14:40:51;;;;;;;6.93;0.95;;;;;;;;;;5062065;28;20052;-80